sensor_id;sensor_type;location;lat;lon;timestamp;P1;durP1;ratioP1;P2;durP2;ratioP2
74124;SDS011;62475;52.192;5.396;2023-06-19T00:00:02;9.05;;;6.85;;
74124;SDS011;62475;52.192;5.396;2023-06-19T00:03:26;8.30;;;6.05;;
74124;SDS011;62475;52.192;5.396;2023-06-19T00:06:51;9.27;;;6.97;;
74124;SDS011;62475;52.192;5.396;2023-06-19T00:10:15;10.82;;;6.53;;
74124;SDS011;62475;52.192;5.396;2023-06-19T00:13:39;8.50;;;6.30;;
74124;SDS011;62475;52.192;5.396;2023-06-19T00:17:03;8.75;;;6.78;;
74124;SDS011;62475;52.192;5.396;2023-06-19T00:20:27;8.85;;;6.03;;
74124;SDS011;62475;52.192;5.396;2023-06-19T00:23:52;8.80;;;6.43;;
74124;SDS011;62475;52.192;5.396;2023-06-19T00:27:17;8.05;;;5.70;;
74124;SDS011;62475;52.192;5.396;2023-06-19T00:30:44;8.38;;;6.13;;
74124;SDS011;62475;52.192;5.396;2023-06-19T00:34:08;9.75;;;5.88;;
74124;SDS011;62475;52.192;5.396;2023-06-19T00:37:32;8.57;;;6.85;;
74124;SDS011;62475;52.192;5.396;2023-06-19T00:40:59;7.07;;;5.97;;
74124;SDS011;62475;52.192;5.396;2023-06-19T00:44:23;10.40;;;6.55;;
74124;SDS011;62475;52.192;5.396;2023-06-19T00:47:50;10.18;;;6.68;;
74124;SDS011;62475;52.192;5.396;2023-06-19T00:51:15;7.78;;;6.55;;
74124;SDS011;62475;52.192;5.396;2023-06-19T00:54:38;7.75;;;5.85;;
74124;SDS011;62475;52.192;5.396;2023-06-19T00:58:02;8.40;;;5.70;;
74124;SDS011;62475;52.192;5.396;2023-06-19T01:01:27;7.93;;;5.85;;
74124;SDS011;62475;52.192;5.396;2023-06-19T01:04:53;6.13;;;4.35;;
74124;SDS011;62475;52.192;5.396;2023-06-19T01:12:01;5.50;;;4.28;;
74124;SDS011;62475;52.192;5.396;2023-06-19T01:15:30;8.55;;;4.72;;
74124;SDS011;62475;52.192;5.396;2023-06-19T01:18:55;9.30;;;4.95;;
74124;SDS011;62475;52.192;5.396;2023-06-19T01:22:29;5.60;;;3.55;;
74124;SDS011;62475;52.192;5.396;2023-06-19T01:25:53;6.88;;;3.60;;
74124;SDS011;62475;52.192;5.396;2023-06-19T01:29:17;6.55;;;3.42;;
74124;SDS011;62475;52.192;5.396;2023-06-19T01:32:54;6.53;;;2.88;;
74124;SDS011;62475;52.192;5.396;2023-06-19T01:36:21;5.05;;;3.20;;
74124;SDS011;62475;52.192;5.396;2023-06-19T01:39:46;6.05;;;2.67;;
74124;SDS011;62475;52.192;5.396;2023-06-19T01:43:11;3.63;;;2.25;;
74124;SDS011;62475;52.192;5.396;2023-06-19T01:46:35;6.25;;;2.60;;
74124;SDS011;62475;52.192;5.396;2023-06-19T01:49:59;3.60;;;1.98;;
74124;SDS011;62475;52.192;5.396;2023-06-19T01:53:23;4.68;;;1.98;;
74124;SDS011;62475;52.192;5.396;2023-06-19T01:56:47;3.83;;;1.52;;
74124;SDS011;62475;52.192;5.396;2023-06-19T02:00:11;4.47;;;1.75;;
74124;SDS011;62475;52.192;5.396;2023-06-19T02:03:35;2.42;;;1.52;;
74124;SDS011;62475;52.192;5.396;2023-06-19T02:06:59;2.92;;;1.67;;
74124;SDS011;62475;52.192;5.396;2023-06-19T02:10:23;3.20;;;1.83;;
74124;SDS011;62475;52.192;5.396;2023-06-19T02:13:47;4.22;;;1.60;;
74124;SDS011;62475;52.192;5.396;2023-06-19T02:17:10;3.00;;;1.70;;
74124;SDS011;62475;52.192;5.396;2023-06-19T02:20:34;3.25;;;1.90;;
74124;SDS011;62475;52.192;5.396;2023-06-19T02:23:58;3.65;;;2.13;;
74124;SDS011;62475;52.192;5.396;2023-06-19T02:27:22;3.42;;;1.90;;
74124;SDS011;62475;52.192;5.396;2023-06-19T02:30:46;2.72;;;1.70;;
74124;SDS011;62475;52.192;5.396;2023-06-19T02:34:10;3.85;;;1.92;;
74124;SDS011;62475;52.192;5.396;2023-06-19T02:37:34;2.78;;;1.83;;
74124;SDS011;62475;52.192;5.396;2023-06-19T02:40:58;4.18;;;2.00;;
74124;SDS011;62475;52.192;5.396;2023-06-19T02:44:22;3.90;;;2.55;;
74124;SDS011;62475;52.192;5.396;2023-06-19T02:47:46;3.28;;;2.63;;
74124;SDS011;62475;52.192;5.396;2023-06-19T02:51:10;3.72;;;2.78;;
74124;SDS011;62475;52.192;5.396;2023-06-19T02:54:34;5.68;;;2.55;;
74124;SDS011;62475;52.192;5.396;2023-06-19T03:01:21;6.22;;;2.90;;
74124;SDS011;62475;52.192;5.396;2023-06-19T03:04:46;3.97;;;2.50;;
74124;SDS011;62475;52.192;5.396;2023-06-19T03:11:40;4.07;;;2.80;;
74124;SDS011;62475;52.192;5.396;2023-06-19T03:15:05;3.53;;;2.60;;
74124;SDS011;62475;52.192;5.396;2023-06-19T03:18:29;6.03;;;2.88;;
74124;SDS011;62475;52.192;5.396;2023-06-19T03:25:16;7.18;;;3.13;;
74124;SDS011;62475;52.192;5.396;2023-06-19T03:32:04;4.60;;;3.42;;
74124;SDS011;62475;52.192;5.396;2023-06-19T03:35:28;5.40;;;4.03;;
74124;SDS011;62475;52.192;5.396;2023-06-19T03:38:52;6.18;;;3.30;;
74124;SDS011;62475;52.192;5.396;2023-06-19T03:42:16;5.47;;;3.85;;
74124;SDS011;62475;52.192;5.396;2023-06-19T03:49:04;6.38;;;4.50;;
74124;SDS011;62475;52.192;5.396;2023-06-19T03:52:27;9.30;;;4.65;;
74124;SDS011;62475;52.192;5.396;2023-06-19T03:55:52;5.68;;;4.15;;
74124;SDS011;62475;52.192;5.396;2023-06-19T03:59:16;5.75;;;3.90;;
74124;SDS011;62475;52.192;5.396;2023-06-19T04:02:40;9.52;;;5.05;;
74124;SDS011;62475;52.192;5.396;2023-06-19T04:06:04;7.53;;;5.35;;
74124;SDS011;62475;52.192;5.396;2023-06-19T04:09:28;7.50;;;5.80;;
74124;SDS011;62475;52.192;5.396;2023-06-19T04:12:55;9.75;;;6.55;;
74124;SDS011;62475;52.192;5.396;2023-06-19T04:16:19;10.02;;;6.38;;
74124;SDS011;62475;52.192;5.396;2023-06-19T04:19:43;11.18;;;6.93;;
74124;SDS011;62475;52.192;5.396;2023-06-19T04:23:07;11.50;;;6.68;;
74124;SDS011;62475;52.192;5.396;2023-06-19T04:26:33;12.15;;;7.18;;
74124;SDS011;62475;52.192;5.396;2023-06-19T04:29:57;13.40;;;6.15;;
74124;SDS011;62475;52.192;5.396;2023-06-19T04:33:25;9.80;;;6.63;;
74124;SDS011;62475;52.192;5.396;2023-06-19T04:36:50;10.25;;;6.25;;
74124;SDS011;62475;52.192;5.396;2023-06-19T04:40:14;10.38;;;5.90;;
74124;SDS011;62475;52.192;5.396;2023-06-19T04:43:38;13.07;;;6.97;;
74124;SDS011;62475;52.192;5.396;2023-06-19T04:47:02;13.98;;;7.50;;
74124;SDS011;62475;52.192;5.396;2023-06-19T04:50:28;16.52;;;8.90;;
74124;SDS011;62475;52.192;5.396;2023-06-19T04:53:51;14.93;;;9.57;;
74124;SDS011;62475;52.192;5.396;2023-06-19T04:57:15;14.45;;;8.98;;
74124;SDS011;62475;52.192;5.396;2023-06-19T05:00:41;10.95;;;7.22;;
74124;SDS011;62475;52.192;5.396;2023-06-19T05:04:05;8.68;;;5.70;;
74124;SDS011;62475;52.192;5.396;2023-06-19T05:07:29;10.07;;;5.22;;
74124;SDS011;62475;52.192;5.396;2023-06-19T05:10:53;7.88;;;4.70;;
74124;SDS011;62475;52.192;5.396;2023-06-19T05:14:19;5.25;;;3.28;;
74124;SDS011;62475;52.192;5.396;2023-06-19T05:21:07;3.53;;;1.60;;
74124;SDS011;62475;52.192;5.396;2023-06-19T05:24:31;4.32;;;1.48;;
74124;SDS011;62475;52.192;5.396;2023-06-19T05:27:55;3.55;;;1.70;;
74124;SDS011;62475;52.192;5.396;2023-06-19T05:31:19;4.05;;;1.83;;
74124;SDS011;62475;52.192;5.396;2023-06-19T05:34:43;3.28;;;2.13;;
74124;SDS011;62475;52.192;5.396;2023-06-19T05:38:08;3.45;;;1.60;;
74124;SDS011;62475;52.192;5.396;2023-06-19T05:41:32;3.42;;;1.92;;
74124;SDS011;62475;52.192;5.396;2023-06-19T05:48:24;2.03;;;1.45;;
74124;SDS011;62475;52.192;5.396;2023-06-19T05:51:48;4.35;;;2.20;;
74124;SDS011;62475;52.192;5.396;2023-06-19T05:58:35;4.57;;;2.80;;
74124;SDS011;62475;52.192;5.396;2023-06-19T06:05:26;5.15;;;2.90;;
74124;SDS011;62475;52.192;5.396;2023-06-19T06:08:50;5.70;;;3.30;;
74124;SDS011;62475;52.192;5.396;2023-06-19T06:12:14;4.13;;;3.28;;
74124;SDS011;62475;52.192;5.396;2023-06-19T06:15:38;6.75;;;3.40;;
74124;SDS011;62475;52.192;5.396;2023-06-19T06:19:02;10.80;;;4.20;;
74124;SDS011;62475;52.192;5.396;2023-06-19T06:22:26;6.13;;;3.83;;
74124;SDS011;62475;52.192;5.396;2023-06-19T06:25:50;5.28;;;3.88;;
74124;SDS011;62475;52.192;5.396;2023-06-19T06:29:14;8.90;;;5.25;;
74124;SDS011;62475;52.192;5.396;2023-06-19T06:32:38;7.55;;;5.13;;
74124;SDS011;62475;52.192;5.396;2023-06-19T06:36:02;7.43;;;5.47;;
74124;SDS011;62475;52.192;5.396;2023-06-19T06:39:26;8.23;;;5.70;;
74124;SDS011;62475;52.192;5.396;2023-06-19T06:42:50;9.88;;;5.03;;
74124;SDS011;62475;52.192;5.396;2023-06-19T06:46:14;9.43;;;5.70;;
74124;SDS011;62475;52.192;5.396;2023-06-19T06:49:38;10.20;;;6.82;;
74124;SDS011;62475;52.192;5.396;2023-06-19T06:53:02;10.13;;;7.55;;
74124;SDS011;62475;52.192;5.396;2023-06-19T06:56:26;10.35;;;6.82;;
74124;SDS011;62475;52.192;5.396;2023-06-19T07:03:15;9.15;;;7.32;;
74124;SDS011;62475;52.192;5.396;2023-06-19T07:06:39;11.55;;;7.53;;
74124;SDS011;62475;52.192;5.396;2023-06-19T07:10:05;10.85;;;7.88;;
74124;SDS011;62475;52.192;5.396;2023-06-19T07:13:29;10.18;;;7.82;;
74124;SDS011;62475;52.192;5.396;2023-06-19T07:16:54;9.93;;;8.15;;
74124;SDS011;62475;52.192;5.396;2023-06-19T07:20:18;11.20;;;7.90;;
74124;SDS011;62475;52.192;5.396;2023-06-19T07:23:42;12.25;;;8.48;;
74124;SDS011;62475;52.192;5.396;2023-06-19T07:27:06;16.17;;;9.40;;
74124;SDS011;62475;52.192;5.396;2023-06-19T07:30:31;13.40;;;9.70;;
74124;SDS011;62475;52.192;5.396;2023-06-19T07:33:55;12.60;;;8.50;;
74124;SDS011;62475;52.192;5.396;2023-06-19T07:37:19;16.48;;;9.70;;
74124;SDS011;62475;52.192;5.396;2023-06-19T07:40:43;13.95;;;9.10;;
74124;SDS011;62475;52.192;5.396;2023-06-19T07:44:07;12.77;;;8.60;;
74124;SDS011;62475;52.192;5.396;2023-06-19T07:47:31;12.10;;;8.90;;
74124;SDS011;62475;52.192;5.396;2023-06-19T07:50:56;13.57;;;9.30;;
74124;SDS011;62475;52.192;5.396;2023-06-19T07:54:20;14.25;;;9.40;;
74124;SDS011;62475;52.192;5.396;2023-06-19T07:57:44;15.25;;;9.77;;
74124;SDS011;62475;52.192;5.396;2023-06-19T08:01:08;14.70;;;9.60;;
74124;SDS011;62475;52.192;5.396;2023-06-19T08:04:32;14.63;;;10.00;;
74124;SDS011;62475;52.192;5.396;2023-06-19T08:07:56;14.27;;;9.30;;
74124;SDS011;62475;52.192;5.396;2023-06-19T08:11:21;15.40;;;9.02;;
74124;SDS011;62475;52.192;5.396;2023-06-19T08:14:45;14.88;;;8.90;;
74124;SDS011;62475;52.192;5.396;2023-06-19T08:18:12;14.43;;;9.27;;
74124;SDS011;62475;52.192;5.396;2023-06-19T08:21:36;14.95;;;9.48;;
74124;SDS011;62475;52.192;5.396;2023-06-19T08:25:00;13.55;;;9.68;;
74124;SDS011;62475;52.192;5.396;2023-06-19T08:28:24;16.55;;;9.77;;
74124;SDS011;62475;52.192;5.396;2023-06-19T08:31:48;14.30;;;10.27;;
74124;SDS011;62475;52.192;5.396;2023-06-19T08:35:13;13.00;;;10.52;;
74124;SDS011;62475;52.192;5.396;2023-06-19T08:38:37;12.55;;;9.50;;
74124;SDS011;62475;52.192;5.396;2023-06-19T08:42:03;14.75;;;10.88;;
74124;SDS011;62475;52.192;5.396;2023-06-19T08:45:28;16.92;;;10.80;;
74124;SDS011;62475;52.192;5.396;2023-06-19T08:48:54;13.57;;;10.07;;
74124;SDS011;62475;52.192;5.396;2023-06-19T08:52:18;16.60;;;11.55;;
74124;SDS011;62475;52.192;5.396;2023-06-19T08:55:42;16.08;;;11.20;;
74124;SDS011;62475;52.192;5.396;2023-06-19T08:59:12;17.20;;;11.60;;
74124;SDS011;62475;52.192;5.396;2023-06-19T09:02:39;14.48;;;11.02;;
74124;SDS011;62475;52.192;5.396;2023-06-19T09:06:06;15.68;;;11.82;;
74124;SDS011;62475;52.192;5.396;2023-06-19T09:09:32;16.48;;;11.43;;
74124;SDS011;62475;52.192;5.396;2023-06-19T09:12:59;15.52;;;11.48;;
74124;SDS011;62475;52.192;5.396;2023-06-19T09:16:26;19.73;;;11.48;;
74124;SDS011;62475;52.192;5.396;2023-06-19T09:19:59;17.17;;;11.65;;
74124;SDS011;62475;52.192;5.396;2023-06-19T09:23:24;19.30;;;12.35;;
74124;SDS011;62475;52.192;5.396;2023-06-19T09:26:50;21.70;;;12.63;;
74124;SDS011;62475;52.192;5.396;2023-06-19T09:30:17;18.15;;;12.35;;
74124;SDS011;62475;52.192;5.396;2023-06-19T09:33:41;15.52;;;11.40;;
74124;SDS011;62475;52.192;5.396;2023-06-19T09:37:05;17.48;;;12.27;;
74124;SDS011;62475;52.192;5.396;2023-06-19T09:40:29;21.35;;;12.20;;
74124;SDS011;62475;52.192;5.396;2023-06-19T09:43:54;15.15;;;11.30;;
74124;SDS011;62475;52.192;5.396;2023-06-19T09:47:21;20.70;;;12.10;;
74124;SDS011;62475;52.192;5.396;2023-06-19T09:50:51;18.25;;;13.13;;
74124;SDS011;62475;52.192;5.396;2023-06-19T09:54:19;17.77;;;11.70;;
74124;SDS011;62475;52.192;5.396;2023-06-19T09:57:43;18.02;;;13.05;;
74124;SDS011;62475;52.192;5.396;2023-06-19T10:01:08;19.65;;;13.70;;
74124;SDS011;62475;52.192;5.396;2023-06-19T10:04:41;19.27;;;13.40;;
74124;SDS011;62475;52.192;5.396;2023-06-19T10:08:08;17.40;;;13.00;;
74124;SDS011;62475;52.192;5.396;2023-06-19T10:11:49;19.67;;;12.35;;
74124;SDS011;62475;52.192;5.396;2023-06-19T10:15:20;17.55;;;13.05;;
74124;SDS011;62475;52.192;5.396;2023-06-19T10:18:46;22.45;;;13.18;;
74124;SDS011;62475;52.192;5.396;2023-06-19T10:22:20;20.77;;;14.13;;
74124;SDS011;62475;52.192;5.396;2023-06-19T10:25:55;17.48;;;12.65;;
74124;SDS011;62475;52.192;5.396;2023-06-19T10:29:26;19.70;;;13.07;;
74124;SDS011;62475;52.192;5.396;2023-06-19T10:32:50;23.33;;;11.05;;
74124;SDS011;62475;52.192;5.396;2023-06-19T10:36:18;17.98;;;11.38;;
74124;SDS011;62475;52.192;5.396;2023-06-19T10:40:00;19.77;;;11.35;;
74124;SDS011;62475;52.192;5.396;2023-06-19T10:43:24;13.57;;;10.68;;
74124;SDS011;62475;52.192;5.396;2023-06-19T10:46:50;13.75;;;10.52;;
74124;SDS011;62475;52.192;5.396;2023-06-19T10:50:16;13.93;;;11.75;;
74124;SDS011;62475;52.192;5.396;2023-06-19T10:53:46;16.48;;;11.93;;
74124;SDS011;62475;52.192;5.396;2023-06-19T10:57:09;16.10;;;12.05;;
74124;SDS011;62475;52.192;5.396;2023-06-19T11:00:33;17.45;;;12.32;;
74124;SDS011;62475;52.192;5.396;2023-06-19T11:03:59;18.50;;;13.90;;
74124;SDS011;62475;52.192;5.396;2023-06-19T11:07:22;17.10;;;12.23;;
74124;SDS011;62475;52.192;5.396;2023-06-19T11:10:47;15.30;;;11.52;;
74124;SDS011;62475;52.192;5.396;2023-06-19T11:14:13;14.40;;;11.77;;
74124;SDS011;62475;52.192;5.396;2023-06-19T11:17:37;17.90;;;12.95;;
74124;SDS011;62475;52.192;5.396;2023-06-19T11:21:01;19.10;;;12.13;;
74124;SDS011;62475;52.192;5.396;2023-06-19T11:24:29;17.20;;;11.98;;
74124;SDS011;62475;52.192;5.396;2023-06-19T11:28:00;20.77;;;11.02;;
74124;SDS011;62475;52.192;5.396;2023-06-19T11:31:25;13.40;;;9.90;;
74124;SDS011;62475;52.192;5.396;2023-06-19T11:34:49;12.25;;;9.57;;
74124;SDS011;62475;52.192;5.396;2023-06-19T11:38:21;12.73;;;10.07;;
74124;SDS011;62475;52.192;5.396;2023-06-19T11:41:45;18.58;;;11.65;;
74124;SDS011;62475;52.192;5.396;2023-06-19T11:45:09;15.88;;;10.15;;
74124;SDS011;62475;52.192;5.396;2023-06-19T11:48:38;14.05;;;9.77;;
74124;SDS011;62475;52.192;5.396;2023-06-19T11:52:01;12.15;;;9.60;;
74124;SDS011;62475;52.192;5.396;2023-06-19T11:55:26;16.25;;;9.85;;
74124;SDS011;62475;52.192;5.396;2023-06-19T11:58:50;14.05;;;9.38;;
74124;SDS011;62475;52.192;5.396;2023-06-19T12:02:14;10.80;;;8.00;;
74124;SDS011;62475;52.192;5.396;2023-06-19T12:05:38;11.45;;;8.15;;
74124;SDS011;62475;52.192;5.396;2023-06-19T12:09:02;15.20;;;8.63;;
74124;SDS011;62475;52.192;5.396;2023-06-19T12:12:28;13.43;;;9.18;;
74124;SDS011;62475;52.192;5.396;2023-06-19T12:15:52;11.23;;;8.05;;
74124;SDS011;62475;52.192;5.396;2023-06-19T12:19:16;10.57;;;7.45;;
74124;SDS011;62475;52.192;5.396;2023-06-19T12:22:40;14.38;;;10.13;;
74124;SDS011;62475;52.192;5.396;2023-06-19T12:26:04;12.25;;;8.65;;
74124;SDS011;62475;52.192;5.396;2023-06-19T12:29:28;10.90;;;9.07;;
74124;SDS011;62475;52.192;5.396;2023-06-19T12:32:52;14.45;;;9.60;;
74124;SDS011;62475;52.192;5.396;2023-06-19T12:36:15;14.27;;;10.18;;
74124;SDS011;62475;52.192;5.396;2023-06-19T12:39:42;12.88;;;10.20;;
74124;SDS011;62475;52.192;5.396;2023-06-19T12:43:07;11.95;;;9.15;;
74124;SDS011;62475;52.192;5.396;2023-06-19T12:46:32;12.65;;;8.55;;
74124;SDS011;62475;52.192;5.396;2023-06-19T12:49:55;10.82;;;7.57;;
74124;SDS011;62475;52.192;5.396;2023-06-19T12:53:19;11.38;;;8.13;;
74124;SDS011;62475;52.192;5.396;2023-06-19T12:56:44;12.10;;;8.95;;
74124;SDS011;62475;52.192;5.396;2023-06-19T13:00:10;11.70;;;8.55;;
74124;SDS011;62475;52.192;5.396;2023-06-19T13:03:34;13.90;;;9.18;;
74124;SDS011;62475;52.192;5.396;2023-06-19T13:06:49;11.52;;;8.75;;
74124;SDS011;62475;52.192;5.396;2023-06-19T13:10:13;12.57;;;9.30;;
74124;SDS011;62475;52.192;5.396;2023-06-19T13:13:36;15.10;;;8.80;;
74124;SDS011;62475;52.192;5.396;2023-06-19T13:17:00;14.32;;;8.70;;
74124;SDS011;62475;52.192;5.396;2023-06-19T13:20:24;12.65;;;9.25;;
74124;SDS011;62475;52.192;5.396;2023-06-19T13:23:48;13.80;;;9.20;;
74124;SDS011;62475;52.192;5.396;2023-06-19T13:27:12;11.68;;;8.63;;
74124;SDS011;62475;52.192;5.396;2023-06-19T13:30:36;12.88;;;8.07;;
74124;SDS011;62475;52.192;5.396;2023-06-19T13:34:00;9.70;;;7.97;;
74124;SDS011;62475;52.192;5.396;2023-06-19T13:37:24;11.95;;;8.00;;
74124;SDS011;62475;52.192;5.396;2023-06-19T13:40:46;10.00;;;8.13;;
74124;SDS011;62475;52.192;5.396;2023-06-19T13:44:10;11.43;;;7.97;;
74124;SDS011;62475;52.192;5.396;2023-06-19T13:47:35;10.75;;;8.15;;
74124;SDS011;62475;52.192;5.396;2023-06-19T13:51:00;11.13;;;8.18;;
74124;SDS011;62475;52.192;5.396;2023-06-19T13:54:24;13.75;;;9.00;;
74124;SDS011;62475;52.192;5.396;2023-06-19T13:57:48;12.00;;;9.75;;
74124;SDS011;62475;52.192;5.396;2023-06-19T14:01:12;11.88;;;8.88;;
74124;SDS011;62475;52.192;5.396;2023-06-19T14:04:35;11.23;;;8.68;;
74124;SDS011;62475;52.192;5.396;2023-06-19T14:07:59;15.45;;;10.20;;
74124;SDS011;62475;52.192;5.396;2023-06-19T14:11:23;11.77;;;8.98;;
74124;SDS011;62475;52.192;5.396;2023-06-19T14:14:47;11.38;;;9.35;;
74124;SDS011;62475;52.192;5.396;2023-06-19T14:18:11;12.50;;;8.48;;
74124;SDS011;62475;52.192;5.396;2023-06-19T14:21:34;11.52;;;9.18;;
74124;SDS011;62475;52.192;5.396;2023-06-19T14:24:32;14.07;;;9.68;;
74124;SDS011;62475;52.192;5.396;2023-06-19T14:27:56;13.13;;;10.70;;
74124;SDS011;62475;52.192;5.396;2023-06-19T14:31:23;12.00;;;9.80;;
74124;SDS011;62475;52.192;5.396;2023-06-19T14:34:51;11.60;;;9.20;;
74124;SDS011;62475;52.192;5.396;2023-06-19T14:38:15;12.25;;;8.57;;
74124;SDS011;62475;52.192;5.396;2023-06-19T14:41:39;12.70;;;9.48;;
74124;SDS011;62475;52.192;5.396;2023-06-19T14:45:03;10.73;;;7.80;;
74124;SDS011;62475;52.192;5.396;2023-06-19T14:48:29;10.77;;;8.20;;
74124;SDS011;62475;52.192;5.396;2023-06-19T14:51:53;10.75;;;7.82;;
74124;SDS011;62475;52.192;5.396;2023-06-19T14:55:17;11.00;;;9.00;;
74124;SDS011;62475;52.192;5.396;2023-06-19T14:58:41;10.55;;;8.13;;
74124;SDS011;62475;52.192;5.396;2023-06-19T15:02:05;13.00;;;7.80;;
74124;SDS011;62475;52.192;5.396;2023-06-19T15:05:29;11.48;;;7.72;;
74124;SDS011;62475;52.192;5.396;2023-06-19T15:08:53;10.95;;;7.97;;
74124;SDS011;62475;52.192;5.396;2023-06-19T15:12:17;10.88;;;8.38;;
74124;SDS011;62475;52.192;5.396;2023-06-19T15:15:42;11.55;;;8.60;;
74124;SDS011;62475;52.192;5.396;2023-06-19T15:19:06;12.02;;;8.98;;
74124;SDS011;62475;52.192;5.396;2023-06-19T15:22:30;11.55;;;8.98;;
74124;SDS011;62475;52.192;5.396;2023-06-19T15:25:56;10.77;;;8.57;;
74124;SDS011;62475;52.192;5.396;2023-06-19T15:29:22;9.98;;;8.68;;
74124;SDS011;62475;52.192;5.396;2023-06-19T15:32:45;12.57;;;9.07;;
74124;SDS011;62475;52.192;5.396;2023-06-19T15:36:09;11.13;;;8.57;;
74124;SDS011;62475;52.192;5.396;2023-06-19T15:39:33;14.35;;;8.98;;
74124;SDS011;62475;52.192;5.396;2023-06-19T15:42:57;13.75;;;9.50;;
74124;SDS011;62475;52.192;5.396;2023-06-19T15:46:21;9.80;;;8.52;;
74124;SDS011;62475;52.192;5.396;2023-06-19T15:49:46;12.23;;;9.35;;
74124;SDS011;62475;52.192;5.396;2023-06-19T15:53:10;12.45;;;8.93;;
74124;SDS011;62475;52.192;5.396;2023-06-19T15:56:34;12.43;;;8.88;;
74124;SDS011;62475;52.192;5.396;2023-06-19T15:59:58;9.80;;;8.10;;
74124;SDS011;62475;52.192;5.396;2023-06-19T16:03:22;13.63;;;9.52;;
74124;SDS011;62475;52.192;5.396;2023-06-19T16:06:46;13.63;;;9.20;;
74124;SDS011;62475;52.192;5.396;2023-06-19T16:10:10;12.60;;;9.95;;
74124;SDS011;62475;52.192;5.396;2023-06-19T16:13:35;14.32;;;9.38;;
74124;SDS011;62475;52.192;5.396;2023-06-19T16:16:58;10.20;;;8.88;;
74124;SDS011;62475;52.192;5.396;2023-06-19T16:20:22;11.35;;;8.43;;
74124;SDS011;62475;52.192;5.396;2023-06-19T16:23:47;12.88;;;9.00;;
74124;SDS011;62475;52.192;5.396;2023-06-19T16:27:10;10.65;;;8.52;;
74124;SDS011;62475;52.192;5.396;2023-06-19T16:30:34;10.57;;;8.05;;
74124;SDS011;62475;52.192;5.396;2023-06-19T16:33:58;13.27;;;8.98;;
74124;SDS011;62475;52.192;5.396;2023-06-19T16:37:22;9.55;;;8.05;;
74124;SDS011;62475;52.192;5.396;2023-06-19T16:40:46;10.25;;;8.27;;
74124;SDS011;62475;52.192;5.396;2023-06-19T16:44:12;13.90;;;8.85;;
74124;SDS011;62475;52.192;5.396;2023-06-19T16:47:35;12.43;;;9.05;;
74124;SDS011;62475;52.192;5.396;2023-06-19T16:51:00;12.50;;;9.55;;
74124;SDS011;62475;52.192;5.396;2023-06-19T16:54:24;12.48;;;9.13;;
74124;SDS011;62475;52.192;5.396;2023-06-19T16:57:50;13.25;;;9.05;;
74124;SDS011;62475;52.192;5.396;2023-06-19T17:01:14;10.82;;;8.50;;
74124;SDS011;62475;52.192;5.396;2023-06-19T17:04:39;11.60;;;8.25;;
74124;SDS011;62475;52.192;5.396;2023-06-19T17:08:03;12.13;;;9.40;;
74124;SDS011;62475;52.192;5.396;2023-06-19T17:11:27;9.50;;;7.97;;
74124;SDS011;62475;52.192;5.396;2023-06-19T17:14:51;11.98;;;8.75;;
74124;SDS011;62475;52.192;5.396;2023-06-19T17:18:15;11.02;;;9.25;;
74124;SDS011;62475;52.192;5.396;2023-06-19T17:21:39;10.85;;;7.30;;
74124;SDS011;62475;52.192;5.396;2023-06-19T17:25:02;11.73;;;6.72;;
74124;SDS011;62475;52.192;5.396;2023-06-19T17:28:26;9.48;;;6.55;;
74124;SDS011;62475;52.192;5.396;2023-06-19T17:31:55;11.68;;;6.25;;
74124;SDS011;62475;52.192;5.396;2023-06-19T17:35:20;9.88;;;6.68;;
74124;SDS011;62475;52.192;5.396;2023-06-19T17:38:44;13.27;;;7.35;;
74124;SDS011;62475;52.192;5.396;2023-06-19T17:42:08;9.95;;;7.03;;
74124;SDS011;62475;52.192;5.396;2023-06-19T17:45:33;12.07;;;7.25;;
74124;SDS011;62475;52.192;5.396;2023-06-19T17:48:57;11.45;;;7.93;;
74124;SDS011;62475;52.192;5.396;2023-06-19T17:52:22;13.98;;;7.03;;
74124;SDS011;62475;52.192;5.396;2023-06-19T17:55:46;11.93;;;7.05;;
74124;SDS011;62475;52.192;5.396;2023-06-19T17:59:13;10.80;;;7.03;;
74124;SDS011;62475;52.192;5.396;2023-06-19T18:02:38;10.90;;;7.20;;
74124;SDS011;62475;52.192;5.396;2023-06-19T18:06:04;13.85;;;7.47;;
74124;SDS011;62475;52.192;5.396;2023-06-19T18:09:29;10.93;;;6.55;;
74124;SDS011;62475;52.192;5.396;2023-06-19T18:12:53;13.23;;;6.15;;
74124;SDS011;62475;52.192;5.396;2023-06-19T18:16:17;8.07;;;5.07;;
74124;SDS011;62475;52.192;5.396;2023-06-19T18:19:42;8.85;;;5.10;;
74124;SDS011;62475;52.192;5.396;2023-06-19T18:23:08;8.93;;;4.60;;
74124;SDS011;62475;52.192;5.396;2023-06-19T18:26:32;7.25;;;4.75;;
74124;SDS011;62475;52.192;5.396;2023-06-19T18:29:57;6.75;;;4.38;;
74124;SDS011;62475;52.192;5.396;2023-06-19T18:33:21;7.75;;;4.55;;
74124;SDS011;62475;52.192;5.396;2023-06-19T18:36:44;8.48;;;3.92;;
74124;SDS011;62475;52.192;5.396;2023-06-19T18:40:08;8.45;;;4.78;;
74124;SDS011;62475;52.192;5.396;2023-06-19T18:43:32;9.77;;;4.88;;
74124;SDS011;62475;52.192;5.396;2023-06-19T18:46:56;6.97;;;4.22;;
74124;SDS011;62475;52.192;5.396;2023-06-19T18:50:20;9.50;;;4.30;;
74124;SDS011;62475;52.192;5.396;2023-06-19T18:53:44;6.50;;;4.00;;
74124;SDS011;62475;52.192;5.396;2023-06-19T18:57:08;8.48;;;4.80;;
74124;SDS011;62475;52.192;5.396;2023-06-19T19:00:31;7.03;;;4.60;;
74124;SDS011;62475;52.192;5.396;2023-06-19T19:03:55;6.32;;;4.38;;
74124;SDS011;62475;52.192;5.396;2023-06-19T19:07:21;7.40;;;4.10;;
74124;SDS011;62475;52.192;5.396;2023-06-19T19:10:45;7.70;;;4.55;;
74124;SDS011;62475;52.192;5.396;2023-06-19T19:14:09;7.65;;;4.20;;
74124;SDS011;62475;52.192;5.396;2023-06-19T19:17:33;7.10;;;4.00;;
74124;SDS011;62475;52.192;5.396;2023-06-19T19:21:00;8.75;;;4.28;;
74124;SDS011;62475;52.192;5.396;2023-06-19T19:24:24;7.20;;;4.18;;
74124;SDS011;62475;52.192;5.396;2023-06-19T19:27:48;7.70;;;4.47;;
74124;SDS011;62475;52.192;5.396;2023-06-19T19:31:12;6.57;;;4.25;;
74124;SDS011;62475;52.192;5.396;2023-06-19T19:34:36;7.15;;;3.78;;
74124;SDS011;62475;52.192;5.396;2023-06-19T19:37:59;8.05;;;4.15;;
74124;SDS011;62475;52.192;5.396;2023-06-19T19:41:23;9.25;;;4.70;;
74124;SDS011;62475;52.192;5.396;2023-06-19T19:44:48;6.95;;;4.90;;
74124;SDS011;62475;52.192;5.396;2023-06-19T19:48:12;9.93;;;4.50;;
74124;SDS011;62475;52.192;5.396;2023-06-19T19:51:35;7.47;;;4.25;;
74124;SDS011;62475;52.192;5.396;2023-06-19T19:54:59;6.63;;;4.00;;
74124;SDS011;62475;52.192;5.396;2023-06-19T19:58:26;6.88;;;4.25;;
74124;SDS011;62475;52.192;5.396;2023-06-19T20:01:50;8.02;;;4.05;;
74124;SDS011;62475;52.192;5.396;2023-06-19T20:05:14;6.90;;;4.10;;
74124;SDS011;62475;52.192;5.396;2023-06-19T20:08:41;10.40;;;4.45;;
74124;SDS011;62475;52.192;5.396;2023-06-19T20:12:05;7.80;;;4.55;;
74124;SDS011;62475;52.192;5.396;2023-06-19T20:15:29;10.57;;;4.55;;
74124;SDS011;62475;52.192;5.396;2023-06-19T20:18:53;9.35;;;4.75;;
74124;SDS011;62475;52.192;5.396;2023-06-19T20:22:17;9.85;;;5.45;;
74124;SDS011;62475;52.192;5.396;2023-06-19T20:25:41;9.25;;;5.13;;
74124;SDS011;62475;52.192;5.396;2023-06-19T20:29:05;9.15;;;5.30;;
74124;SDS011;62475;52.192;5.396;2023-06-19T20:32:29;8.57;;;5.43;;
74124;SDS011;62475;52.192;5.396;2023-06-19T20:35:54;10.68;;;5.88;;
74124;SDS011;62475;52.192;5.396;2023-06-19T20:39:18;11.70;;;5.88;;
74124;SDS011;62475;52.192;5.396;2023-06-19T20:42:42;12.27;;;6.13;;
74124;SDS011;62475;52.192;5.396;2023-06-19T20:46:09;11.68;;;6.40;;
74124;SDS011;62475;52.192;5.396;2023-06-19T20:49:34;12.02;;;6.15;;
74124;SDS011;62475;52.192;5.396;2023-06-19T20:52:58;9.98;;;5.85;;
74124;SDS011;62475;52.192;5.396;2023-06-19T20:56:22;14.05;;;6.38;;